LTAD/ANK METAR and TAF weather

Enter ICAO airport designator
Station Type Date Time Source
LTAD METAR 2022/06/30 11:50 UTC NOAA

LTAD 301150Z 32004KT 290V040 9999 SCT040 27/11 Q1012 TEMPO TL1300 01015G25KT -TSRA RMK RWY29 VRB05KT


Station Type Date Time Source
LTAD Decoded METAR 2022/06/30 11:50 UTC NOAA

Ankara / Etimesgut, Turkey (LTAD) 39-57N 032-41E 806M
Jun 30, 2022 - 07:50 AM EDT / 2022.06.30 1150 UTC
Wind: from the NW (320 degrees) at 5 MPH (4 KT) (direction variable):0
Visibility: greater than 7 mile(s):0
Sky conditions: partly cloudy
Temperature: 80 F (27 C)
Dew Point: 51 F (11 C)
Relative Humidity: 36%
Pressure (altimeter): 29.88 in. Hg (1012 hPa)
ob: LTAD 301150Z 32004KT 290V040 9999 SCT040 27/11 Q1012 TEMPO TL1300 01015G25KT -TSRA RMK RWY29 VRB05KT
cycle: 12

Station Type Date Time Source
LTAD TAF UTC NOAA

Error!

Example: see airport list